sensor_id;sensor_type;location;lat;lon;timestamp;P1;durP1;ratioP1;P2;durP2;ratioP2
18931;SDS011;9598;50.954;3.112;2023-12-29T00:04:58;9.05;;;3.30;;
18931;SDS011;9598;50.954;3.112;2023-12-29T00:10:02;11.02;;;2.70;;
18931;SDS011;9598;50.954;3.112;2023-12-29T00:15:05;9.23;;;3.53;;
18931;SDS011;9598;50.954;3.112;2023-12-29T00:20:08;11.82;;;2.75;;
18931;SDS011;9598;50.954;3.112;2023-12-29T00:25:12;11.77;;;2.90;;
18931;SDS011;9598;50.954;3.112;2023-12-29T00:30:15;11.48;;;3.78;;
18931;SDS011;9598;50.954;3.112;2023-12-29T00:35:19;16.05;;;3.35;;
18931;SDS011;9598;50.954;3.112;2023-12-29T00:40:23;9.35;;;3.15;;
18931;SDS011;9598;50.954;3.112;2023-12-29T00:45:25;8.77;;;2.70;;
18931;SDS011;9598;50.954;3.112;2023-12-29T00:50:30;8.25;;;3.05;;
18931;SDS011;9598;50.954;3.112;2023-12-29T00:55:34;10.50;;;3.08;;
18931;SDS011;9598;50.954;3.112;2023-12-29T01:00:36;7.35;;;2.55;;
18931;SDS011;9598;50.954;3.112;2023-12-29T01:05:38;12.25;;;2.70;;
18931;SDS011;9598;50.954;3.112;2023-12-29T01:10:42;7.85;;;2.05;;
18931;SDS011;9598;50.954;3.112;2023-12-29T01:15:44;9.25;;;2.55;;
18931;SDS011;9598;50.954;3.112;2023-12-29T01:20:46;5.38;;;2.30;;
18931;SDS011;9598;50.954;3.112;2023-12-29T01:25:49;6.70;;;2.75;;
18931;SDS011;9598;50.954;3.112;2023-12-29T01:30:51;9.82;;;3.13;;
18931;SDS011;9598;50.954;3.112;2023-12-29T01:35:53;9.75;;;2.80;;
18931;SDS011;9598;50.954;3.112;2023-12-29T01:40:57;12.30;;;3.22;;
18931;SDS011;9598;50.954;3.112;2023-12-29T01:45:59;7.50;;;3.20;;
18931;SDS011;9598;50.954;3.112;2023-12-29T01:51:01;9.80;;;3.55;;
18931;SDS011;9598;50.954;3.112;2023-12-29T01:56:05;13.02;;;2.85;;
18931;SDS011;9598;50.954;3.112;2023-12-29T02:01:09;13.60;;;2.85;;
18931;SDS011;9598;50.954;3.112;2023-12-29T02:06:12;8.60;;;3.33;;
18931;SDS011;9598;50.954;3.112;2023-12-29T02:11:18;14.32;;;3.80;;
18931;SDS011;9598;50.954;3.112;2023-12-29T02:16:22;13.52;;;3.35;;
18931;SDS011;9598;50.954;3.112;2023-12-29T02:21:29;11.60;;;3.10;;
18931;SDS011;9598;50.954;3.112;2023-12-29T02:26:33;15.77;;;3.90;;
18931;SDS011;9598;50.954;3.112;2023-12-29T02:31:36;12.68;;;3.30;;
18931;SDS011;9598;50.954;3.112;2023-12-29T02:36:41;12.25;;;2.78;;
18931;SDS011;9598;50.954;3.112;2023-12-29T02:41:45;13.88;;;3.45;;
18931;SDS011;9598;50.954;3.112;2023-12-29T02:46:47;14.27;;;3.40;;
18931;SDS011;9598;50.954;3.112;2023-12-29T02:51:49;11.98;;;3.72;;
18931;SDS011;9598;50.954;3.112;2023-12-29T02:56:53;10.57;;;3.60;;
18931;SDS011;9598;50.954;3.112;2023-12-29T03:01:55;14.05;;;3.22;;
18931;SDS011;9598;50.954;3.112;2023-12-29T03:06:57;12.35;;;3.17;;
18931;SDS011;9598;50.954;3.112;2023-12-29T03:12:01;14.68;;;3.38;;
18931;SDS011;9598;50.954;3.112;2023-12-29T03:17:03;11.45;;;3.72;;
18931;SDS011;9598;50.954;3.112;2023-12-29T03:22:05;12.23;;;3.17;;
18931;SDS011;9598;50.954;3.112;2023-12-29T03:27:09;14.85;;;3.25;;
18931;SDS011;9598;50.954;3.112;2023-12-29T03:32:11;12.07;;;3.03;;
18931;SDS011;9598;50.954;3.112;2023-12-29T03:37:13;9.68;;;3.33;;
18931;SDS011;9598;50.954;3.112;2023-12-29T03:42:16;11.82;;;3.55;;
18931;SDS011;9598;50.954;3.112;2023-12-29T03:47:18;11.00;;;2.85;;
18931;SDS011;9598;50.954;3.112;2023-12-29T03:52:21;11.50;;;3.05;;
18931;SDS011;9598;50.954;3.112;2023-12-29T03:57:24;8.98;;;2.70;;
18931;SDS011;9598;50.954;3.112;2023-12-29T04:02:26;8.30;;;2.63;;
18931;SDS011;9598;50.954;3.112;2023-12-29T04:07:29;9.65;;;2.50;;
18931;SDS011;9598;50.954;3.112;2023-12-29T04:12:32;11.98;;;2.40;;
18931;SDS011;9598;50.954;3.112;2023-12-29T04:17:34;9.07;;;2.63;;
18931;SDS011;9598;50.954;3.112;2023-12-29T04:22:36;10.10;;;2.08;;
18931;SDS011;9598;50.954;3.112;2023-12-29T04:27:40;7.18;;;2.50;;
18931;SDS011;9598;50.954;3.112;2023-12-29T04:32:43;8.35;;;2.30;;
18931;SDS011;9598;50.954;3.112;2023-12-29T04:37:45;11.65;;;3.20;;
18931;SDS011;9598;50.954;3.112;2023-12-29T04:42:48;8.57;;;2.53;;
18931;SDS011;9598;50.954;3.112;2023-12-29T04:47:50;8.55;;;2.72;;
18931;SDS011;9598;50.954;3.112;2023-12-29T04:52:53;6.20;;;2.60;;
18931;SDS011;9598;50.954;3.112;2023-12-29T04:57:56;8.10;;;1.95;;
18931;SDS011;9598;50.954;3.112;2023-12-29T05:02:58;4.80;;;2.00;;
18931;SDS011;9598;50.954;3.112;2023-12-29T05:08:00;5.93;;;1.92;;
18931;SDS011;9598;50.954;3.112;2023-12-29T05:13:04;3.15;;;1.83;;
18931;SDS011;9598;50.954;3.112;2023-12-29T05:18:07;6.97;;;1.63;;
18931;SDS011;9598;50.954;3.112;2023-12-29T05:23:09;4.30;;;1.60;;
18931;SDS011;9598;50.954;3.112;2023-12-29T05:28:12;8.45;;;1.77;;
18931;SDS011;9598;50.954;3.112;2023-12-29T05:33:15;9.98;;;3.38;;
18931;SDS011;9598;50.954;3.112;2023-12-29T05:38:17;5.07;;;1.88;;
18931;SDS011;9598;50.954;3.112;2023-12-29T05:43:20;7.47;;;2.80;;
18931;SDS011;9598;50.954;3.112;2023-12-29T05:48:22;8.48;;;2.30;;
18931;SDS011;9598;50.954;3.112;2023-12-29T05:53:25;5.90;;;3.20;;
18931;SDS011;9598;50.954;3.112;2023-12-29T05:58:28;8.40;;;2.60;;
18931;SDS011;9598;50.954;3.112;2023-12-29T06:03:30;4.88;;;2.17;;
18931;SDS011;9598;50.954;3.112;2023-12-29T06:08:32;6.72;;;2.45;;
18931;SDS011;9598;50.954;3.112;2023-12-29T06:13:36;8.10;;;2.47;;
18931;SDS011;9598;50.954;3.112;2023-12-29T06:18:38;5.75;;;1.85;;
18931;SDS011;9598;50.954;3.112;2023-12-29T06:23:41;5.30;;;2.47;;
18931;SDS011;9598;50.954;3.112;2023-12-29T06:28:44;5.63;;;2.20;;
18931;SDS011;9598;50.954;3.112;2023-12-29T06:33:47;5.35;;;2.13;;
18931;SDS011;9598;50.954;3.112;2023-12-29T06:38:49;7.78;;;2.28;;
18931;SDS011;9598;50.954;3.112;2023-12-29T06:43:53;4.43;;;1.98;;
18931;SDS011;9598;50.954;3.112;2023-12-29T06:48:56;5.22;;;2.22;;
18931;SDS011;9598;50.954;3.112;2023-12-29T06:53:58;4.95;;;1.90;;
18931;SDS011;9598;50.954;3.112;2023-12-29T06:59:01;4.68;;;2.10;;
18931;SDS011;9598;50.954;3.112;2023-12-29T07:04:04;2.28;;;1.50;;
18931;SDS011;9598;50.954;3.112;2023-12-29T07:09:06;3.00;;;1.45;;
18931;SDS011;9598;50.954;3.112;2023-12-29T07:14:10;2.47;;;0.90;;
18931;SDS011;9598;50.954;3.112;2023-12-29T07:19:12;1.52;;;0.93;;
18931;SDS011;9598;50.954;3.112;2023-12-29T07:24:14;1.05;;;0.90;;
18931;SDS011;9598;50.954;3.112;2023-12-29T07:29:18;2.95;;;1.00;;
18931;SDS011;9598;50.954;3.112;2023-12-29T07:34:20;1.92;;;0.85;;
18931;SDS011;9598;50.954;3.112;2023-12-29T07:39:22;3.72;;;0.80;;
18931;SDS011;9598;50.954;3.112;2023-12-29T07:44:26;1.50;;;0.77;;
18931;SDS011;9598;50.954;3.112;2023-12-29T07:49:28;2.05;;;1.10;;
18931;SDS011;9598;50.954;3.112;2023-12-29T07:54:30;1.40;;;0.85;;
18931;SDS011;9598;50.954;3.112;2023-12-29T07:59:34;1.67;;;0.90;;
18931;SDS011;9598;50.954;3.112;2023-12-29T08:04:36;2.60;;;1.60;;
18931;SDS011;9598;50.954;3.112;2023-12-29T08:09:38;1.58;;;1.45;;
18931;SDS011;9598;50.954;3.112;2023-12-29T08:14:42;2.53;;;1.38;;
18931;SDS011;9598;50.954;3.112;2023-12-29T08:19:44;4.57;;;1.38;;
18931;SDS011;9598;50.954;3.112;2023-12-29T08:24:46;2.25;;;1.45;;
18931;SDS011;9598;50.954;3.112;2023-12-29T08:29:49;5.15;;;1.30;;
18931;SDS011;9598;50.954;3.112;2023-12-29T08:34:51;2.28;;;1.10;;
18931;SDS011;9598;50.954;3.112;2023-12-29T08:39:54;4.10;;;1.15;;
18931;SDS011;9598;50.954;3.112;2023-12-29T08:44:59;2.65;;;1.10;;
18931;SDS011;9598;50.954;3.112;2023-12-29T08:50:01;4.13;;;1.20;;
18931;SDS011;9598;50.954;3.112;2023-12-29T08:55:05;4.75;;;1.40;;
18931;SDS011;9598;50.954;3.112;2023-12-29T09:00:10;3.90;;;1.50;;
18931;SDS011;9598;50.954;3.112;2023-12-29T09:05:12;4.35;;;1.20;;
18931;SDS011;9598;50.954;3.112;2023-12-29T09:10:14;3.13;;;1.15;;
18931;SDS011;9598;50.954;3.112;2023-12-29T09:15:18;3.38;;;1.50;;
18931;SDS011;9598;50.954;3.112;2023-12-29T09:20:20;5.55;;;1.30;;
18931;SDS011;9598;50.954;3.112;2023-12-29T09:25:22;3.47;;;1.20;;
18931;SDS011;9598;50.954;3.112;2023-12-29T09:30:25;2.63;;;1.13;;
18931;SDS011;9598;50.954;3.112;2023-12-29T09:35:28;4.50;;;1.52;;
18931;SDS011;9598;50.954;3.112;2023-12-29T09:40:30;9.75;;;1.95;;
18931;SDS011;9598;50.954;3.112;2023-12-29T09:45:34;7.72;;;2.55;;
18931;SDS011;9598;50.954;3.112;2023-12-29T09:50:39;7.38;;;2.67;;
18931;SDS011;9598;50.954;3.112;2023-12-29T09:55:41;8.27;;;2.58;;
18931;SDS011;9598;50.954;3.112;2023-12-29T10:00:47;9.10;;;2.63;;
18931;SDS011;9598;50.954;3.112;2023-12-29T10:05:51;12.00;;;3.47;;
18931;SDS011;9598;50.954;3.112;2023-12-29T10:10:58;12.77;;;3.63;;
18931;SDS011;9598;50.954;3.112;2023-12-29T10:16:07;11.50;;;3.40;;
18931;SDS011;9598;50.954;3.112;2023-12-29T10:21:26;14.75;;;3.40;;
18931;SDS011;9598;50.954;3.112;2023-12-29T10:26:29;11.13;;;3.25;;
18931;SDS011;9598;50.954;3.112;2023-12-29T10:31:33;10.10;;;3.42;;
18931;SDS011;9598;50.954;3.112;2023-12-29T10:36:40;10.70;;;3.35;;
18931;SDS011;9598;50.954;3.112;2023-12-29T10:41:48;9.57;;;2.78;;
18931;SDS011;9598;50.954;3.112;2023-12-29T10:46:52;10.13;;;3.13;;
18931;SDS011;9598;50.954;3.112;2023-12-29T10:51:54;12.75;;;2.92;;
18931;SDS011;9598;50.954;3.112;2023-12-29T10:57:00;9.90;;;2.95;;
18931;SDS011;9598;50.954;3.112;2023-12-29T11:02:06;7.38;;;2.75;;
18931;SDS011;9598;50.954;3.112;2023-12-29T11:07:14;11.00;;;3.05;;
18931;SDS011;9598;50.954;3.112;2023-12-29T11:12:16;3.95;;;2.00;;
18931;SDS011;9598;50.954;3.112;2023-12-29T11:17:20;5.82;;;2.08;;
18931;SDS011;9598;50.954;3.112;2023-12-29T11:22:23;5.68;;;2.10;;
18931;SDS011;9598;50.954;3.112;2023-12-29T11:27:27;5.13;;;1.83;;
18931;SDS011;9598;50.954;3.112;2023-12-29T11:32:34;5.22;;;1.90;;
18931;SDS011;9598;50.954;3.112;2023-12-29T11:37:47;5.63;;;1.77;;
18931;SDS011;9598;50.954;3.112;2023-12-29T11:43:02;3.85;;;1.25;;
18931;SDS011;9598;50.954;3.112;2023-12-29T11:48:11;4.68;;;1.10;;
18931;SDS011;9598;50.954;3.112;2023-12-29T11:53:30;3.35;;;1.00;;
18931;SDS011;9598;50.954;3.112;2023-12-29T11:58:33;1.48;;;0.82;;
18931;SDS011;9598;50.954;3.112;2023-12-29T12:03:36;1.77;;;0.98;;
18931;SDS011;9598;50.954;3.112;2023-12-29T12:08:38;2.10;;;1.35;;
18931;SDS011;9598;50.954;3.112;2023-12-29T12:13:43;2.53;;;1.17;;
18931;SDS011;9598;50.954;3.112;2023-12-29T12:18:47;3.08;;;1.60;;
18931;SDS011;9598;50.954;3.112;2023-12-29T12:23:50;3.35;;;1.45;;
18931;SDS011;9598;50.954;3.112;2023-12-29T12:28:54;2.55;;;1.10;;
18931;SDS011;9598;50.954;3.112;2023-12-29T12:33:57;4.30;;;1.70;;
18931;SDS011;9598;50.954;3.112;2023-12-29T12:39:00;5.53;;;1.30;;
18931;SDS011;9598;50.954;3.112;2023-12-29T12:44:03;2.95;;;1.48;;
18931;SDS011;9598;50.954;3.112;2023-12-29T12:49:12;4.97;;;1.55;;
18931;SDS011;9598;50.954;3.112;2023-12-29T12:54:17;3.85;;;1.30;;
18931;SDS011;9598;50.954;3.112;2023-12-29T12:59:19;2.17;;;1.25;;
18931;SDS011;9598;50.954;3.112;2023-12-29T13:04:24;2.78;;;1.25;;
18931;SDS011;9598;50.954;3.112;2023-12-29T13:09:26;3.70;;;1.40;;
18931;SDS011;9598;50.954;3.112;2023-12-29T13:14:28;3.97;;;1.40;;
18931;SDS011;9598;50.954;3.112;2023-12-29T13:19:32;3.00;;;1.30;;
18931;SDS011;9598;50.954;3.112;2023-12-29T13:24:34;4.55;;;1.33;;
18931;SDS011;9598;50.954;3.112;2023-12-29T13:29:37;5.25;;;1.30;;
18931;SDS011;9598;50.954;3.112;2023-12-29T13:34:48;4.20;;;1.63;;
18931;SDS011;9598;50.954;3.112;2023-12-29T13:39:56;5.55;;;1.70;;
18931;SDS011;9598;50.954;3.112;2023-12-29T13:45:04;5.70;;;1.90;;
18931;SDS011;9598;50.954;3.112;2023-12-29T13:50:10;4.32;;;1.58;;
18931;SDS011;9598;50.954;3.112;2023-12-29T13:55:12;4.03;;;2.03;;
18931;SDS011;9598;50.954;3.112;2023-12-29T14:00:23;7.05;;;2.58;;
18931;SDS011;9598;50.954;3.112;2023-12-29T14:05:31;5.13;;;2.42;;
18931;SDS011;9598;50.954;3.112;2023-12-29T14:10:37;5.60;;;2.15;;
18931;SDS011;9598;50.954;3.112;2023-12-29T14:15:39;9.38;;;2.65;;
18931;SDS011;9598;50.954;3.112;2023-12-29T14:20:44;9.05;;;2.65;;
18931;SDS011;9598;50.954;3.112;2023-12-29T14:25:46;11.70;;;3.78;;
18931;SDS011;9598;50.954;3.112;2023-12-29T14:30:49;10.43;;;2.28;;
18931;SDS011;9598;50.954;3.112;2023-12-29T14:35:52;10.77;;;3.05;;
18931;SDS011;9598;50.954;3.112;2023-12-29T14:40:54;8.52;;;2.95;;
18931;SDS011;9598;50.954;3.112;2023-12-29T14:45:56;13.45;;;3.40;;
18931;SDS011;9598;50.954;3.112;2023-12-29T14:51:00;7.22;;;2.88;;
18931;SDS011;9598;50.954;3.112;2023-12-29T14:56:05;9.95;;;3.05;;
18931;SDS011;9598;50.954;3.112;2023-12-29T15:01:07;14.93;;;2.97;;
18931;SDS011;9598;50.954;3.112;2023-12-29T15:06:11;13.82;;;3.20;;
18931;SDS011;9598;50.954;3.112;2023-12-29T15:11:13;12.43;;;3.53;;
18931;SDS011;9598;50.954;3.112;2023-12-29T15:16:15;16.45;;;3.78;;
18931;SDS011;9598;50.954;3.112;2023-12-29T15:21:19;11.50;;;3.50;;
18931;SDS011;9598;50.954;3.112;2023-12-29T15:26:21;13.82;;;3.75;;
18931;SDS011;9598;50.954;3.112;2023-12-29T15:31:24;11.90;;;3.33;;
18931;SDS011;9598;50.954;3.112;2023-12-29T15:36:27;7.18;;;2.45;;
18931;SDS011;9598;50.954;3.112;2023-12-29T15:41:31;14.80;;;3.22;;
18931;SDS011;9598;50.954;3.112;2023-12-29T15:46:33;10.25;;;3.20;;
18931;SDS011;9598;50.954;3.112;2023-12-29T15:51:37;15.52;;;3.95;;
18931;SDS011;9598;50.954;3.112;2023-12-29T15:56:39;14.35;;;2.95;;
18931;SDS011;9598;50.954;3.112;2023-12-29T16:01:41;14.48;;;3.28;;
18931;SDS011;9598;50.954;3.112;2023-12-29T16:06:44;11.43;;;3.95;;
18931;SDS011;9598;50.954;3.112;2023-12-29T16:11:46;11.98;;;3.20;;
18931;SDS011;9598;50.954;3.112;2023-12-29T16:16:49;11.80;;;3.65;;
18931;SDS011;9598;50.954;3.112;2023-12-29T16:21:53;13.60;;;3.72;;
18931;SDS011;9598;50.954;3.112;2023-12-29T16:26:55;11.32;;;3.88;;
18931;SDS011;9598;50.954;3.112;2023-12-29T16:31:57;15.93;;;3.70;;
18931;SDS011;9598;50.954;3.112;2023-12-29T16:37:00;10.73;;;3.33;;
18931;SDS011;9598;50.954;3.112;2023-12-29T16:42:03;13.95;;;4.10;;
18931;SDS011;9598;50.954;3.112;2023-12-29T16:47:05;13.57;;;4.03;;
18931;SDS011;9598;50.954;3.112;2023-12-29T16:52:09;13.82;;;3.75;;
18931;SDS011;9598;50.954;3.112;2023-12-29T16:57:11;12.45;;;3.22;;
18931;SDS011;9598;50.954;3.112;2023-12-29T17:02:13;15.75;;;3.13;;
18931;SDS011;9598;50.954;3.112;2023-12-29T17:07:17;10.10;;;2.72;;
18931;SDS011;9598;50.954;3.112;2023-12-29T17:12:19;12.85;;;2.97;;
18931;SDS011;9598;50.954;3.112;2023-12-29T17:17:22;15.00;;;3.75;;
18931;SDS011;9598;50.954;3.112;2023-12-29T17:22:25;12.82;;;3.53;;
18931;SDS011;9598;50.954;3.112;2023-12-29T17:27:27;10.38;;;3.15;;
18931;SDS011;9598;50.954;3.112;2023-12-29T17:32:30;15.32;;;3.78;;
18931;SDS011;9598;50.954;3.112;2023-12-29T17:37:33;14.07;;;3.33;;
18931;SDS011;9598;50.954;3.112;2023-12-29T17:42:35;15.32;;;4.18;;
18931;SDS011;9598;50.954;3.112;2023-12-29T17:47:37;19.60;;;4.03;;
18931;SDS011;9598;50.954;3.112;2023-12-29T17:52:44;12.75;;;4.13;;
18931;SDS011;9598;50.954;3.112;2023-12-29T17:57:46;13.20;;;3.95;;
18931;SDS011;9598;50.954;3.112;2023-12-29T18:02:48;14.00;;;4.28;;
18931;SDS011;9598;50.954;3.112;2023-12-29T18:07:51;11.00;;;4.07;;
18931;SDS011;9598;50.954;3.112;2023-12-29T18:12:53;12.60;;;4.25;;
18931;SDS011;9598;50.954;3.112;2023-12-29T18:17:57;13.32;;;4.57;;
18931;SDS011;9598;50.954;3.112;2023-12-29T18:23:01;13.07;;;3.80;;
18931;SDS011;9598;50.954;3.112;2023-12-29T18:28:07;11.88;;;3.65;;
18931;SDS011;9598;50.954;3.112;2023-12-29T18:33:09;13.48;;;4.40;;
18931;SDS011;9598;50.954;3.112;2023-12-29T18:38:13;13.95;;;3.30;;
18931;SDS011;9598;50.954;3.112;2023-12-29T18:43:15;8.70;;;3.30;;
18931;SDS011;9598;50.954;3.112;2023-12-29T18:48:19;12.68;;;3.47;;
18931;SDS011;9598;50.954;3.112;2023-12-29T18:53:22;14.10;;;4.30;;
18931;SDS011;9598;50.954;3.112;2023-12-29T18:58:24;15.48;;;3.75;;
18931;SDS011;9598;50.954;3.112;2023-12-29T19:03:26;11.45;;;3.88;;
18931;SDS011;9598;50.954;3.112;2023-12-29T19:08:30;11.45;;;3.53;;
18931;SDS011;9598;50.954;3.112;2023-12-29T19:13:32;15.25;;;3.65;;
18931;SDS011;9598;50.954;3.112;2023-12-29T19:18:34;9.45;;;3.58;;
18931;SDS011;9598;50.954;3.112;2023-12-29T19:23:39;18.25;;;3.80;;
18931;SDS011;9598;50.954;3.112;2023-12-29T19:28:41;11.13;;;3.28;;
18931;SDS011;9598;50.954;3.112;2023-12-29T19:33:43;10.60;;;4.03;;
18931;SDS011;9598;50.954;3.112;2023-12-29T19:38:47;13.70;;;4.10;;
18931;SDS011;9598;50.954;3.112;2023-12-29T19:43:50;13.35;;;3.85;;
18931;SDS011;9598;50.954;3.112;2023-12-29T19:48:52;11.93;;;3.17;;
18931;SDS011;9598;50.954;3.112;2023-12-29T19:53:56;14.30;;;3.58;;
18931;SDS011;9598;50.954;3.112;2023-12-29T19:58:58;12.02;;;3.10;;
18931;SDS011;9598;50.954;3.112;2023-12-29T20:04:00;9.77;;;3.33;;
18931;SDS011;9598;50.954;3.112;2023-12-29T20:09:03;12.65;;;3.50;;
18931;SDS011;9598;50.954;3.112;2023-12-29T20:14:07;13.95;;;4.07;;
18931;SDS011;9598;50.954;3.112;2023-12-29T20:19:12;12.73;;;3.30;;
18931;SDS011;9598;50.954;3.112;2023-12-29T20:24:17;6.50;;;2.40;;
18931;SDS011;9598;50.954;3.112;2023-12-29T20:29:19;11.15;;;2.50;;
18931;SDS011;9598;50.954;3.112;2023-12-29T20:34:22;10.65;;;2.75;;
18931;SDS011;9598;50.954;3.112;2023-12-29T20:39:26;10.60;;;3.10;;
18931;SDS011;9598;50.954;3.112;2023-12-29T20:44:28;6.47;;;2.50;;
18931;SDS011;9598;50.954;3.112;2023-12-29T20:49:30;8.38;;;2.90;;
18931;SDS011;9598;50.954;3.112;2023-12-29T20:54:34;11.48;;;3.00;;
18931;SDS011;9598;50.954;3.112;2023-12-29T20:59:39;11.52;;;2.92;;
18931;SDS011;9598;50.954;3.112;2023-12-29T21:04:41;7.25;;;3.10;;
18931;SDS011;9598;50.954;3.112;2023-12-29T21:09:45;7.47;;;2.63;;
18931;SDS011;9598;50.954;3.112;2023-12-29T21:14:48;7.43;;;2.67;;
18931;SDS011;9598;50.954;3.112;2023-12-29T21:19:50;6.53;;;2.13;;
18931;SDS011;9598;50.954;3.112;2023-12-29T21:24:54;10.73;;;2.60;;
18931;SDS011;9598;50.954;3.112;2023-12-29T21:29:57;13.57;;;2.67;;
18931;SDS011;9598;50.954;3.112;2023-12-29T21:34:59;7.93;;;3.45;;
18931;SDS011;9598;50.954;3.112;2023-12-29T21:40:03;9.52;;;3.97;;
18931;SDS011;9598;50.954;3.112;2023-12-29T21:45:06;13.63;;;4.00;;
18931;SDS011;9598;50.954;3.112;2023-12-29T21:50:10;9.95;;;4.10;;
18931;SDS011;9598;50.954;3.112;2023-12-29T21:55:14;14.10;;;3.88;;
18931;SDS011;9598;50.954;3.112;2023-12-29T22:00:18;17.35;;;4.57;;
18931;SDS011;9598;50.954;3.112;2023-12-29T22:05:20;18.70;;;4.22;;
18931;SDS011;9598;50.954;3.112;2023-12-29T22:10:24;15.38;;;4.05;;
18931;SDS011;9598;50.954;3.112;2023-12-29T22:15:26;9.88;;;3.90;;
18931;SDS011;9598;50.954;3.112;2023-12-29T22:20:28;12.00;;;3.60;;
18931;SDS011;9598;50.954;3.112;2023-12-29T22:25:31;14.63;;;3.72;;
18931;SDS011;9598;50.954;3.112;2023-12-29T22:30:33;11.35;;;3.97;;
18931;SDS011;9598;50.954;3.112;2023-12-29T22:35:35;9.23;;;3.13;;
18931;SDS011;9598;50.954;3.112;2023-12-29T22:40:39;17.40;;;3.97;;
18931;SDS011;9598;50.954;3.112;2023-12-29T22:45:41;11.88;;;3.78;;
18931;SDS011;9598;50.954;3.112;2023-12-29T22:50:43;12.57;;;3.50;;
18931;SDS011;9598;50.954;3.112;2023-12-29T22:55:46;11.70;;;3.65;;
18931;SDS011;9598;50.954;3.112;2023-12-29T23:00:48;12.57;;;3.15;;
18931;SDS011;9598;50.954;3.112;2023-12-29T23:05:51;12.07;;;3.50;;
18931;SDS011;9598;50.954;3.112;2023-12-29T23:10:54;13.07;;;3.50;;
18931;SDS011;9598;50.954;3.112;2023-12-29T23:15:57;12.30;;;3.03;;
18931;SDS011;9598;50.954;3.112;2023-12-29T23:20:59;11.48;;;3.08;;
18931;SDS011;9598;50.954;3.112;2023-12-29T23:26:03;13.05;;;3.88;;
18931;SDS011;9598;50.954;3.112;2023-12-29T23:31:06;13.80;;;3.13;;
18931;SDS011;9598;50.954;3.112;2023-12-29T23:36:08;10.90;;;3.85;;
18931;SDS011;9598;50.954;3.112;2023-12-29T23:41:12;13.52;;;3.67;;
18931;SDS011;9598;50.954;3.112;2023-12-29T23:46:17;12.48;;;3.30;;
18931;SDS011;9598;50.954;3.112;2023-12-29T23:51:19;10.65;;;3.40;;
18931;SDS011;9598;50.954;3.112;2023-12-29T23:56:23;10.13;;;3.13;;
